createdAt,value
2023-05-25T00:05:30.342Z,6.60
2023-05-25T00:15:30.987Z,6.00
2023-05-25T00:25:31.507Z,5.50
2023-05-25T00:35:32.108Z,5.10
2023-05-25T00:45:32.625Z,5.90
2023-05-25T00:55:33.202Z,5.40
2023-05-25T01:05:33.736Z,5.60
2023-05-25T01:15:34.383Z,5.40
2023-05-25T01:25:34.884Z,5.60
2023-05-25T01:35:35.463Z,5.40
2023-05-25T01:45:36.060Z,5.40
2023-05-25T01:55:36.617Z,5.60
2023-05-25T02:05:37.149Z,6.30
2023-05-25T02:15:37.811Z,5.50
2023-05-25T02:25:38.289Z,5.90
2023-05-25T02:35:38.816Z,6.40
2023-05-25T02:45:39.285Z,6.20
2023-05-25T02:55:39.801Z,6.30
2023-05-25T03:05:40.277Z,6.60
2023-05-25T03:15:40.801Z,7.00
2023-05-25T03:25:41.337Z,7.00
2023-05-25T03:35:41.993Z,7.20
2023-05-25T03:45:42.619Z,6.90
2023-05-25T03:55:43.433Z,6.90
2023-05-25T04:05:43.760Z,7.40
2023-05-25T04:15:51.450Z,7.60
2023-05-25T04:25:45.006Z,8.10
2023-05-25T04:35:45.949Z,7.80
2023-05-25T04:45:46.543Z,8.70
2023-05-25T04:55:47.000Z,8.00
2023-05-25T05:05:47.562Z,8.90
2023-05-25T05:15:48.084Z,7.80
2023-05-25T05:25:48.581Z,8.10
2023-05-25T05:35:49.096Z,8.10
2023-05-25T05:45:49.564Z,8.30
2023-05-25T05:55:52.363Z,8.90
2023-05-25T06:05:50.600Z,13.80
2023-05-25T06:15:51.109Z,8.60
2023-05-25T06:25:51.567Z,9.50
2023-05-25T06:35:52.088Z,7.90
2023-05-25T06:45:52.650Z,8.10
2023-05-25T06:55:53.402Z,6.90
2023-05-25T07:05:53.844Z,6.70
2023-05-25T07:15:54.407Z,6.00
2023-05-25T07:25:54.895Z,5.50
2023-05-25T07:35:55.469Z,5.10
2023-05-25T07:45:55.904Z,5.50
2023-05-25T07:55:56.420Z,4.40
2023-05-25T08:05:56.907Z,4.10
2023-05-25T08:15:57.487Z,4.80
2023-05-25T08:25:57.940Z,3.70
2023-05-25T08:35:58.484Z,3.90
2023-05-25T08:45:58.970Z,5.00
2023-05-25T08:55:59.500Z,4.40
2023-05-25T09:05:59.967Z,4.20
2023-05-25T09:16:00.541Z,3.90
2023-05-25T09:26:01.059Z,6.50
2023-05-25T09:36:01.583Z,3.90
2023-05-25T09:46:02.110Z,6.20
2023-05-25T09:56:04.174Z,5.20
2023-05-25T10:06:03.386Z,4.50
2023-05-25T10:16:03.913Z,4.40
2023-05-25T10:26:04.658Z,5.00
2023-05-25T10:46:05.535Z,4.60
2023-05-25T10:56:06.059Z,4.20
2023-05-25T11:06:06.557Z,4.20
2023-05-25T11:16:07.060Z,3.80
2023-05-25T11:26:07.548Z,4.20
2023-05-25T11:36:08.057Z,4.60
2023-05-25T11:46:08.570Z,4.10
2023-05-25T11:56:09.047Z,5.00
2023-05-25T12:06:09.539Z,4.60
2023-05-25T12:16:10.063Z,4.60
2023-05-25T12:26:10.536Z,5.20
2023-05-25T12:36:11.084Z,6.40
2023-05-25T12:46:11.664Z,5.90
2023-05-25T12:56:12.292Z,10.70
2023-05-25T13:06:12.789Z,4.90
2023-05-25T13:16:13.352Z,4.80
2023-05-25T13:26:20.807Z,4.40
2023-05-25T13:36:14.302Z,4.90
2023-05-25T13:46:25.765Z,5.10
2023-05-25T13:56:16.670Z,5.20
2023-05-25T14:06:16.152Z,5.50
2023-05-25T14:16:16.709Z,5.30
2023-05-25T14:26:17.236Z,5.20
2023-05-25T14:36:17.753Z,5.10
2023-05-25T14:46:18.234Z,5.00
2023-05-25T14:56:18.769Z,5.00
2023-05-25T15:06:19.218Z,4.70
2023-05-25T15:16:19.774Z,4.90
2023-05-25T15:26:20.245Z,5.00
2023-05-25T15:36:20.762Z,4.30
2023-05-25T15:46:21.294Z,4.50
2023-05-25T15:56:21.790Z,4.10
2023-05-25T16:06:22.270Z,4.40
2023-05-25T16:16:22.803Z,4.10
2023-05-25T16:26:23.267Z,4.40
2023-05-25T16:36:25.295Z,4.40
2023-05-25T16:46:24.620Z,4.60
2023-05-25T16:56:25.076Z,4.40
2023-05-25T17:06:25.547Z,4.60
2023-05-25T17:16:26.112Z,5.30
2023-05-25T17:26:26.557Z,5.40
2023-05-25T17:36:27.122Z,5.20
2023-05-25T17:46:27.860Z,5.10
2023-05-25T17:56:28.434Z,4.50
2023-05-25T18:06:29.497Z,4.60
2023-05-25T18:16:29.619Z,4.80
2023-05-25T18:26:30.088Z,4.40
2023-05-25T18:36:30.619Z,4.70
2023-05-25T18:46:31.129Z,6.10
2023-05-25T18:56:31.676Z,4.20
2023-05-25T19:06:32.122Z,4.30
2023-05-25T19:16:32.664Z,5.00
2023-05-25T19:26:33.125Z,5.10
2023-05-25T19:36:33.641Z,5.30
2023-05-25T19:46:34.197Z,4.90
2023-05-25T19:56:34.679Z,4.70
2023-05-25T20:06:35.209Z,4.40
2023-05-25T20:16:35.889Z,5.10
2023-05-25T20:26:36.505Z,5.10
2023-05-25T20:36:37.093Z,4.40
2023-05-25T20:46:37.713Z,5.60
2023-05-25T20:56:38.268Z,4.60
2023-05-25T21:06:38.805Z,4.80
2023-05-25T21:16:39.445Z,4.50
2023-05-25T21:26:40.060Z,4.90
2023-05-25T21:36:40.632Z,5.30
2023-05-25T21:46:41.176Z,5.30
2023-05-25T21:56:41.792Z,5.00
2023-05-25T22:06:42.317Z,5.20
2023-05-25T22:16:42.942Z,4.80
2023-05-25T22:26:50.499Z,4.90
2023-05-25T22:36:44.041Z,4.80
2023-05-25T22:46:44.602Z,5.90
2023-05-25T22:56:45.156Z,6.40
2023-05-25T23:06:45.697Z,6.30
2023-05-25T23:16:46.300Z,5.40
2023-05-25T23:26:46.792Z,5.50
2023-05-25T23:36:47.354Z,5.90
2023-05-25T23:46:47.896Z,5.90
2023-05-25T23:56:48.465Z,5.40
